Time;durP1;ratioP1;P1;durP2;ratioP2;P2;SDS_P1;SDS_P2;PMS_P1;PMS_P2;Temp;Humidity;BMP_temperature;BMP_pressure;BME280_temperature;BME280_humidity;BME280_pressure;Samples;Min_cycle;Max_cycle;Signal;HPM_P1;HPM_P2
2022/05/10 00:00:52;;;;;;;;;;;;;;;20.66;nan;95642.53;2097145;28;1196;-59
2022/05/10 00:01:54;;;;;;;;;;;;;;;20.66;nan;95638.03;2088891;28;1678;-59
2022/05/10 00:02:56;;;;;;;;;;;;;;;20.66;nan;95638.03;2076450;28;1188;-58
2022/05/10 00:04:00;;;;;;;;;;;;;;;20.66;nan;95632.69;2075540;28;1878;-59
2022/05/10 00:05:02;;;;;;;;;;;;;;;20.66;nan;95629.19;2080869;28;1733;-58
2022/05/10 00:06:05;;;;;;;;;;;;;;;20.66;nan;95638.03;2086728;28;1636;-58
2022/05/10 00:07:07;;;;;;;;;;;;;;;20.67;nan;95633.50;2083815;28;1617;-59
2022/05/10 00:08:10;;;;;;;;;;;;;;;20.65;nan;95636.38;2085294;28;1624;-58
2022/05/10 00:09:13;;;;;;;;;;;;;;;20.67;nan;95628.19;2089527;28;747;-58
2022/05/10 00:10:15;;;;;;;;;;;;;;;20.67;nan;95634.34;2084568;28;1979;-58
2022/05/10 00:11:16;;;;;;;;;;;;;;;20.67;nan;95629.00;2086220;28;1805;-58
2022/05/10 00:12:18;;;;;;;;;;;;;;;20.67;nan;95628.19;2084225;28;1654;-59
2022/05/10 00:13:19;;;;;;;;;;;;;;;20.68;nan;95625.28;2080620;28;1629;-57
2022/05/10 00:14:21;;;;;;;;;;;;;;;20.68;nan;95635.97;2075337;28;1602;-57
2022/05/10 00:15:23;;;;;;;;;;;;;;;20.68;nan;95625.28;2076999;28;1677;-58
2022/05/10 00:16:24;;;;;;;;;;;;;;;20.67;nan;95618.31;2089552;28;1003;-57
2022/05/10 00:17:30;;;;;;;;;;;;;;;20.67;nan;95622.84;2088347;28;1534;-58
2022/05/10 00:18:32;;;;;;;;;;;;;;;20.68;nan;95624.47;2089223;28;1091;-58
2022/05/10 00:19:34;;;;;;;;;;;;;;;20.67;nan;95628.19;2089293;28;1013;-57
2022/05/10 00:20:35;;;;;;;;;;;;;;;20.67;nan;95618.31;2087831;28;1827;-59
2022/05/10 00:21:37;;;;;;;;;;;;;;;20.67;nan;95629.00;2088533;28;902;-58
2022/05/10 00:22:39;;;;;;;;;;;;;;;20.68;nan;95619.94;2080260;28;1631;-58
2022/05/10 00:23:40;;;;;;;;;;;;;;;20.68;nan;95619.94;2080879;28;1578;-58
2022/05/10 00:24:42;;;;;;;;;;;;;;;20.68;nan;95617.28;2073253;28;1584;-58
2022/05/10 00:25:43;;;;;;;;;;;;;;;20.67;nan;95623.66;2076486;28;1382;-58
2022/05/10 00:26:45;;;;;;;;;;;;;;;20.68;nan;95619.94;2075610;28;1636;-58
2022/05/10 00:27:47;;;;;;;;;;;;;;;20.69;nan;95621.63;2079448;28;1606;-58
2022/05/10 00:28:48;;;;;;;;;;;;;;;20.66;nan;95616.69;2080916;28;1535;-59
2022/05/10 00:29:50;;;;;;;;;;;;;;;20.67;nan;95618.31;2080967;28;1693;-58
2022/05/10 00:30:52;;;;;;;;;;;;;;;20.68;nan;95625.28;2081120;28;1898;-58
2022/05/10 00:31:53;;;;;;;;;;;;;;;20.57;nan;95607.16;2080549;28;1956;-58
2022/05/10 00:32:55;;;;;;;;;;;;;;;20.69;nan;95615.47;2081251;28;1029;-58
2022/05/10 00:33:58;;;;;;;;;;;;;;;20.69;nan;95621.63;2081348;28;922;-58
2022/05/10 00:35:00;;;;;;;;;;;;;;;20.69;nan;95610.94;2082070;28;1486;-58
2022/05/10 00:36:02;;;;;;;;;;;;;;;;;;2081744;28;1650;-57
2022/05/10 00:37:03;;;;;;;;;;;;;;;20.69;nan;95624.28;2081128;28;1482;-59
2022/05/10 00:38:05;;;;;;;;;;;;;;;20.69;nan;95620.81;2086272;28;1369;-59
2022/05/10 00:39:07;;;;;;;;;;;;;;;20.69;nan;95621.63;2091047;28;1025;-58
2022/05/10 00:40:09;;;;;;;;;;;;;;;20.70;nan;95622.44;2082041;28;1567;-58
2022/05/10 00:41:26;;;;;;;;;;;;;;;20.69;nan;95616.28;2082508;28;1032;-58
2022/05/10 00:42:30;;;;;;;;;;;;;;;20.67;nan;95612.97;2076986;28;1621;-59
2022/05/10 00:43:37;;;;;;;;;;;;;;;20.69;nan;95615.47;2073887;28;817;-58
2022/05/10 00:44:51;;;;;;;;;;;;;;;20.68;nan;95619.94;2074186;28;1052;-58
2022/05/10 00:45:59;;;;;;;;;;;;;;;20.68;nan;95619.94;2074348;28;1000;-58
2022/05/10 00:47:33;;;;;;;;;;;;;;;20.69;nan;95610.13;2073789;28;1656;-58
2022/05/10 00:48:42;;;;;;;;;;;;;;;20.68;nan;95609.28;2071497;28;1327;-59
2022/05/10 00:49:59;;;;;;;;;;;;;;;20.68;nan;95614.63;2085698;28;1804;-59
2022/05/10 00:51:24;;;;;;;;;;;;;;;20.68;nan;95619.94;2074318;28;1902;-58
2022/05/10 00:52:32;;;;;;;;;;;;;;;20.68;nan;95609.28;2073994;28;1690;-59
2022/05/10 00:53:36;;;;;;;;;;;;;;;20.68;nan;95603.94;2082409;28;1171;-59
2022/05/10 00:54:56;;;;;;;;;;;;;;;20.68;nan;95609.28;2082142;28;1620;-56
2022/05/10 00:56:07;;;;;;;;;;;;;;;20.69;nan;95610.94;2082325;28;1679;-57
2022/05/10 00:57:15;;;;;;;;;;;;;;;20.69;nan;95610.13;2082274;28;768;-57
2022/05/10 00:58:17;;;;;;;;;;;;;;;20.68;nan;95609.28;2082543;28;1016;-58
2022/05/10 00:59:18;;;;;;;;;;;;;;;20.69;nan;95604.78;2080204;28;1193;-59
2022/05/10 01:00:21;;;;;;;;;;;;;;;20.70;nan;95611.75;2076197;28;1540;-58
2022/05/10 01:01:27;;;;;;;;;;;;;;;20.69;nan;95616.28;2082780;28;1083;-59
2022/05/10 01:02:33;;;;;;;;;;;;;;;20.69;nan;95610.13;2083608;28;1630;-58
2022/05/10 01:03:37;;;;;;;;;;;;;;;20.68;nan;95611.13;2090883;28;992;-58
2022/05/10 01:04:42;;;;;;;;;;;;;;;20.68;nan;95613.78;2088633;28;1516;-59
2022/05/10 01:05:53;;;;;;;;;;;;;;;20.68;nan;95619.13;2083620;28;1718;-58
2022/05/10 01:07:07;;;;;;;;;;;;;;;20.68;nan;95619.13;2089708;28;1540;-58
2022/05/10 01:08:24;;;;;;;;;;;;;;;20.68;nan;95619.94;2081568;28;1435;-59
2022/05/10 01:09:40;;;;;;;;;;;;;;;20.68;nan;95617.28;2090810;28;972;-59
2022/05/10 01:10:42;;;;;;;;;;;;;;;20.68;nan;95619.13;2079642;28;1906;-58
2022/05/10 01:11:46;;;;;;;;;;;;;;;20.68;nan;95619.13;2075117;28;1919;-59
2022/05/10 01:12:53;;;;;;;;;;;;;;;20.68;nan;95611.13;2081541;28;1580;-59
2022/05/10 01:14:16;;;;;;;;;;;;;;;20.68;nan;95609.28;2082548;28;1616;-59
2022/05/10 01:15:20;;;;;;;;;;;;;;;20.69;nan;95618.13;2090724;28;1024;-57
2022/05/10 01:16:23;;;;;;;;;;;;;;;20.69;nan;95610.94;2090654;28;1028;-59
2022/05/10 01:17:25;;;;;;;;;;;;;;;20.69;nan;95610.13;2090589;28;1104;-59
2022/05/10 01:18:27;;;;;;;;;;;;;;;20.69;nan;95615.47;2090855;28;914;-58
2022/05/10 01:19:28;;;;;;;;;;;;;;;20.68;nan;95603.94;2088113;28;1461;-57
2022/05/10 01:20:35;;;;;;;;;;;;;;;20.68;nan;95603.09;2081696;28;1646;-58
2022/05/10 01:21:36;;;;;;;;;;;;;;;;;;2082358;28;1003;-60
2022/05/10 01:22:47;;;;;;;;;;;;;;;20.69;nan;95607.44;2071202;28;1632;-59
2022/05/10 01:24:14;;;;;;;;;;;;;;;20.68;nan;95609.28;2074006;28;1298;-58
2022/05/10 01:25:25;;;;;;;;;;;;;;;20.68;nan;95603.09;2065747;28;1062;-58
2022/05/10 01:26:26;;;;;;;;;;;;;;;;;;2074875;28;1461;-60
2022/05/10 01:27:28;;;;;;;;;;;;;;;20.68;nan;95603.09;2082119;28;1511;-59
2022/05/10 01:28:32;;;;;;;;;;;;;;;20.67;nan;95596.94;2080905;28;1549;-60
2022/05/10 01:29:42;;;;;;;;;;;;;;;20.67;nan;95601.47;2081808;28;1035;-59
2022/05/10 01:30:44;;;;;;;;;;;;;;;20.67;nan;95601.47;2081597;28;1718;-58
2022/05/10 01:33:29;;;;;;;;;;;;;;;20.66;nan;95595.31;2082040;28;1927;-58
2022/05/10 01:33:30;;;;;;;;;;;;;;;20.66;nan;95595.31;2082162;28;1024;-58
2022/05/10 01:34:31;;;;;;;;;;;;;;;20.68;nan;95609.28;2076973;28;1201;-58
2022/05/10 01:35:36;;;;;;;;;;;;;;;20.68;nan;95603.09;2082414;28;783;-58
2022/05/10 01:36:38;;;;;;;;;;;;;;;20.67;nan;95596.13;2081495;28;1502;-59
2022/05/10 01:37:43;;;;;;;;;;;;;;;20.66;nan;95606.00;2084500;28;1650;-59
2022/05/10 01:39:18;;;;;;;;;;;;;;;20.67;nan;95607.63;2082700;28;1084;-61
2022/05/10 01:40:27;;;;;;;;;;;;;;;20.74;nan;95600.50;2073442;28;1095;-60
2022/05/10 01:41:47;;;;;;;;;;;;;;;20.78;nan;95614.25;2082695;28;1949;-60
2022/05/10 01:42:55;;;;;;;;;;;;;;;20.81;nan;95607.72;2082667;28;1596;-59
2022/05/10 01:44:06;;;;;;;;;;;;;;;20.82;nan;95604.00;2090031;28;1077;-62
2022/05/10 01:45:14;;;;;;;;;;;;;;;20.84;nan;95601.97;2079650;28;1578;-60
2022/05/10 01:46:23;;;;;;;;;;;;;;;20.82;nan;95601.34;2085478;28;1300;-60
2022/05/10 01:47:28;;;;;;;;;;;;;;;20.84;nan;95601.97;2089874;28;1045;-61
2022/05/10 01:48:34;;;;;;;;;;;;;;;20.85;nan;95591.06;2088714;28;1804;-60
2022/05/10 01:49:36;;;;;;;;;;;;;;;;;;2089808;28;990;-60
2022/05/10 01:50:43;;;;;;;;;;;;;;;20.88;nan;95597.84;2090666;28;1017;-60
2022/05/10 01:51:52;;;;;;;;;;;;;;;20.86;nan;95578.53;2090396;28;1976;-59
2022/05/10 01:53:07;;;;;;;;;;;;;;;20.88;nan;95592.53;2084849;28;1714;-60
2022/05/10 01:54:21;;;;;;;;;;;;;;;20.86;nan;95590.06;2084138;28;1478;-59
2022/05/10 01:55:27;;;;;;;;;;;;;;;20.85;nan;95598.25;2082038;28;1350;-59
2022/05/10 01:56:29;;;;;;;;;;;;;;;20.87;nan;95596.22;2077058;28;1033;-59
2022/05/10 01:57:33;;;;;;;;;;;;;;;20.85;nan;95593.75;2085148;28;1851;-58
2022/05/10 01:58:36;;;;;;;;;;;;;;;20.87;nan;95596.22;2091231;28;1534;-58
2022/05/10 01:59:40;;;;;;;;;;;;;;;20.86;nan;95599.91;2090126;28;1080;-59
2022/05/10 02:00:45;;;;;;;;;;;;;;;20.86;nan;95594.56;2085058;28;1665;-58
2022/05/10 02:01:47;;;;;;;;;;;;;;;20.85;nan;95592.91;2089992;28;1088;-59
2022/05/10 02:02:54;;;;;;;;;;;;;;;20.86;nan;95594.56;2082940;28;1746;-60
2022/05/10 02:03:59;;;;;;;;;;;;;;;20.87;nan;95593.56;2078673;28;1617;-59
2022/05/10 02:05:03;;;;;;;;;;;;;;;20.86;nan;95594.56;2085071;28;1396;-58
2022/05/10 02:06:24;;;;;;;;;;;;;;;20.86;nan;95590.06;2089744;28;1021;-58
2022/05/10 02:07:26;;;;;;;;;;;;;;;20.86;nan;95594.56;2081162;28;1618;-58
2022/05/10 02:08:34;;;;;;;;;;;;;;;20.87;nan;95590.88;2082323;28;1763;-59
2022/05/10 02:09:59;;;;;;;;;;;;;;;20.88;nan;95571.97;2073702;28;993;-58
2022/05/10 02:11:08;;;;;;;;;;;;;;;20.93;nan;95590.06;2087593;28;1682;-57
2022/05/10 02:12:12;;;;;;;;;;;;;;;20.87;nan;95585.53;2094765;28;1977;-59
2022/05/10 02:13:16;;;;;;;;;;;;;;;20.82;nan;95587.97;2088066;28;1884;-59
2022/05/10 02:14:18;;;;;;;;;;;;;;;20.79;nan;95594.53;2089962;28;1099;-58
2022/05/10 02:15:55;;;;;;;;;;;;;;;20.77;nan;95597.44;2090112;28;1265;-59
2022/05/10 02:16:59;;;;;;;;;;;;;;;20.76;nan;95589.59;2078376;28;1459;-59
2022/05/10 02:18:14;;;;;;;;;;;;;;;20.75;nan;95588.78;2078449;28;1472;-59
2022/05/10 02:19:23;;;;;;;;;;;;;;;20.74;nan;95586.28;2077854;28;1179;-59
2022/05/10 02:20:29;;;;;;;;;;;;;;;20.74;nan;95603.16;2084380;28;1858;-59
2022/05/10 02:21:33;;;;;;;;;;;;;;;20.75;nan;95588.78;2082248;28;1693;-59
2022/05/10 02:22:41;;;;;;;;;;;;;;;20.76;nan;95589.59;2076966;28;1393;-59
2022/05/10 02:23:49;;;;;;;;;;;;;;;20.75;nan;95599.47;2073745;28;1112;-59
2022/05/10 02:24:57;;;;;;;;;;;;;;;20.74;nan;95597.81;2079020;28;1760;-59
2022/05/10 02:26:06;;;;;;;;;;;;;;;20.74;nan;95597.81;2089676;28;1080;-59
2022/05/10 02:27:14;;;;;;;;;;;;;;;20.74;nan;95603.16;2088560;28;1492;-59
2022/05/10 02:28:36;;;;;;;;;;;;;;;20.73;nan;95601.50;2088801;28;1733;-59
2022/05/10 02:29:41;;;;;;;;;;;;;;;20.73;nan;95600.69;2090186;28;1287;-58
2022/05/10 02:30:44;;;;;;;;;;;;;;;20.74;nan;95603.16;2081897;28;1013;-59
2022/05/10 02:33:09;;;;;;;;;;;;;;;20.73;nan;95590.00;2081029;28;1756;-59
2022/05/10 02:34:11;;;;;;;;;;;;;;;20.72;nan;95593.69;2073625;28;1002;-59
2022/05/10 02:35:14;;;;;;;;;;;;;;;20.72;nan;95589.19;2083001;28;1693;-59
2022/05/10 02:36:16;;;;;;;;;;;;;;;20.73;nan;95595.34;2089793;28;1005;-58
2022/05/10 02:37:18;;;;;;;;;;;;;;;20.71;nan;95587.50;2085436;28;1525;-58
2022/05/10 02:38:24;;;;;;;;;;;;;;;20.75;nan;95588.78;2090024;28;1092;-58
2022/05/10 02:39:26;;;;;;;;;;;;;;;20.72;nan;95578.50;2087040;28;1786;-58
2022/05/10 02:40:27;;;;;;;;;;;;;;;20.72;nan;95583.84;2089743;28;1065;-58
2022/05/10 02:41:29;;;;;;;;;;;;;;;20.72;nan;95583.84;2080355;28;1793;-58
2022/05/10 02:42:31;;;;;;;;;;;;;;;20.73;nan;95585.47;2078370;28;1553;-59
2022/05/10 02:43:36;;;;;;;;;;;;;;;20.72;nan;95583.00;2081614;28;1918;-58
2022/05/10 02:44:38;;;;;;;;;;;;;;;20.72;nan;95594.53;2089939;28;743;-58
2022/05/10 02:45:42;;;;;;;;;;;;;;;20.71;nan;95587.50;2087462;28;1852;-58
2022/05/10 02:46:44;;;;;;;;;;;;;;;20.71;nan;95586.69;2095386;28;1816;-59
2022/05/10 02:47:47;;;;;;;;;;;;;;;20.70;nan;95591.22;2097387;28;1017;-59
2022/05/10 02:48:48;;;;;;;;;;;;;;;20.71;nan;95592.84;2089457;28;1227;-59
2022/05/10 02:49:50;;;;;;;;;;;;;;;20.70;nan;95596.56;2088347;28;2040;-61
2022/05/10 02:50:52;;;;;;;;;;;;;;;20.71;nan;95586.69;2087155;28;1823;-60
2022/05/10 02:51:54;;;;;;;;;;;;;;;20.70;nan;95585.88;2089537;28;1906;-58
2022/05/10 02:52:55;;;;;;;;;;;;;;;20.71;nan;95587.50;2082691;28;1616;-59
2022/05/10 02:53:57;;;;;;;;;;;;;;;20.71;nan;95592.84;2079533;28;1724;-58
2022/05/10 02:55:02;;;;;;;;;;;;;;;20.70;nan;95583.19;2089818;28;1008;-59
2022/05/10 02:56:07;;;;;;;;;;;;;;;20.71;nan;95592.84;2086792;28;1781;-60
2022/05/10 02:57:09;;;;;;;;;;;;;;;20.72;nan;95594.53;2086801;28;1545;-59
2022/05/10 02:58:21;;;;;;;;;;;;;;;20.71;nan;95597.38;2088598;28;1661;-60
2022/05/10 02:59:24;;;;;;;;;;;;;;;20.70;nan;95596.56;2089404;28;1025;-59
2022/05/10 03:00:27;;;;;;;;;;;;;;;20.70;nan;95601.91;2086344;28;1792;-59
2022/05/10 03:01:47;;;;;;;;;;;;;;;20.70;nan;95607.22;2086408;28;1738;-60
2022/05/10 03:02:58;;;;;;;;;;;;;;;20.44;nan;95596.41;2082062;28;1701;-58
2022/05/10 03:04:00;;;;;;;;;;;;;;;19.24;nan;95594.56;2080057;28;1621;-59
2022/05/10 03:05:04;;;;;;;;;;;;;;;18.32;nan;95601.16;2077612;28;1474;-62
2022/05/10 03:06:06;;;;;;;;;;;;;;;17.80;nan;95596.69;2089501;28;1089;-57
2022/05/10 03:07:08;;;;;;;;;;;;;;;17.39;nan;95594.34;2087921;28;1822;-59
2022/05/10 03:08:10;;;;;;;;;;;;;;;17.19;nan;95588.69;2089284;28;739;-58
2022/05/10 03:09:12;;;;;;;;;;;;;;;17.03;nan;95584.28;2089097;28;1029;-58
2022/05/10 03:10:14;;;;;;;;;;;;;;;16.94;nan;95595.97;2087858;28;1502;-58
2022/05/10 03:11:15;;;;;;;;;;;;;;;16.89;nan;95587.69;2092234;28;1653;-57
2022/05/10 03:12:17;;;;;;;;;;;;;;;16.83;nan;95594.50;2088189;28;1987;-58
2022/05/10 03:13:19;;;;;;;;;;;;;;;16.79;nan;95597.69;2088058;28;1115;-59
2022/05/10 03:14:21;;;;;;;;;;;;;;;16.68;nan;95591.75;2088864;28;1788;-58
2022/05/10 03:15:22;;;;;;;;;;;;;;;16.53;nan;95588.13;2086328;28;1809;-58
2022/05/10 03:16:24;;;;;;;;;;;;;;;16.53;nan;95588.13;2083128;28;1206;-58
2022/05/10 03:17:26;;;;;;;;;;;;;;;16.54;nan;95584.50;2086725;28;1699;-58
2022/05/10 03:18:28;;;;;;;;;;;;;;;16.59;nan;95587.47;2089618;28;1005;-59
2022/05/10 03:19:29;;;;;;;;;;;;;;;;;;2087388;28;1756;-58
2022/05/10 03:20:31;;;;;;;;;;;;;;;;;;2085520;28;1530;-58
2022/05/10 03:21:35;;;;;;;;;;;;;;;16.46;nan;95581.88;2079677;28;1665;-57
2022/05/10 03:22:36;;;;;;;;;;;;;;;16.30;nan;95588.06;2088190;28;1751;-59
2022/05/10 03:23:38;;;;;;;;;;;;;;;16.29;nan;95581.94;2084790;28;1746;-58
2022/05/10 03:24:40;;;;;;;;;;;;;;;16.24;nan;95588.75;2081485;28;1104;-61
2022/05/10 03:25:41;;;;;;;;;;;;;;;16.16;nan;95586.97;2085777;28;1743;-58
2022/05/10 03:26:47;;;;;;;;;;;;;;;16.16;nan;95586.97;2085346;28;1725;-57
2022/05/10 03:27:49;;;;;;;;;;;;;;;16.14;nan;95583.66;2072541;28;1556;-58
2022/05/10 03:28:51;;;;;;;;;;;;;;;16.11;nan;95584.00;2073182;28;1655;-58
2022/05/10 03:29:53;;;;;;;;;;;;;;;16.13;nan;95587.28;2082894;28;2164;-58
2022/05/10 03:30:55;;;;;;;;;;;;;;;16.09;nan;95591.28;2080315;28;1657;-59
2022/05/10 03:31:56;;;;;;;;;;;;;;;;;;2084890;28;1681;-58
2022/05/10 03:32:58;;;;;;;;;;;;;;;16.81;nan;95596.50;2088174;28;1973;-59
2022/05/10 03:35:20;;;;;;;;;;;;;;;16.21;nan;95616.41;2089660;28;969;-68
2022/05/10 03:36:21;;;;;;;;;;;;;;;16.17;nan;95614.28;2087213;28;1814;-58
2022/05/10 03:37:30;;;;;;;;;;;;;;;16.00;nan;95614.31;2082927;28;1598;-58
2022/05/10 03:38:33;;;;;;;;;;;;;;;15.69;nan;95619.44;2078000;28;1741;-59
2022/05/10 03:39:35;;;;;;;;;;;;;;;15.59;nan;95621.44;2079898;28;1588;-58
2022/05/10 03:40:36;;;;;;;;;;;;;;;15.47;nan;95617.47;2082884;28;1753;-59
2022/05/10 03:41:38;;;;;;;;;;;;;;;15.79;nan;95617.50;2085542;28;1807;-59
2022/05/10 03:42:44;;;;;;;;;;;;;;;15.86;nan;95617.66;2087410;28;1652;-58
2022/05/10 03:43:46;;;;;;;;;;;;;;;15.85;nan;95622.13;2089754;28;934;-58
2022/05/10 03:44:52;;;;;;;;;;;;;;;15.88;nan;95620.13;2087052;28;1746;-59
2022/05/10 03:45:54;;;;;;;;;;;;;;;15.88;nan;95617.47;2088651;28;1943;-60
2022/05/10 03:46:55;;;;;;;;;;;;;;;16.14;nan;95623.41;2088489;28;1434;-59
2022/05/10 03:47:57;;;;;;;;;;;;;;;16.07;nan;95622.41;2086401;28;1772;-60
2022/05/10 03:48:59;;;;;;;;;;;;;;;16.04;nan;95622.75;2087552;28;2048;-60
2022/05/10 03:50:01;;;;;;;;;;;;;;;16.00;nan;95629.41;2071240;28;1732;-60
2022/05/10 03:51:02;;;;;;;;;;;;;;;16.04;nan;95628.88;2078549;28;1326;-59
2022/05/10 03:52:04;;;;;;;;;;;;;;;15.97;nan;95635.03;2079755;28;1356;-60
2022/05/10 03:53:06;;;;;;;;;;;;;;;16.23;nan;95634.84;2080665;28;1979;-64
2022/05/10 03:54:07;;;;;;;;;;;;;;;16.24;nan;95628.50;2090060;28;1427;-61
2022/05/10 03:55:11;;;;;;;;;;;;;;;16.22;nan;95631.34;2088539;28;1179;-59
2022/05/10 03:56:14;;;;;;;;;;;;;;;16.29;nan;95626.19;2081323;28;1340;-59
2022/05/10 03:57:16;;;;;;;;;;;;;;;16.25;nan;95630.19;2080245;28;1050;-59
2022/05/10 03:58:18;;;;;;;;;;;;;;;16.19;nan;95634.34;2083171;28;1439;-59
2022/05/10 03:59:20;;;;;;;;;;;;;;;16.11;nan;95636.19;2081133;28;1258;-59
2022/05/10 04:00:24;;;;;;;;;;;;;;;15.97;nan;95635.03;2078736;28;1742;-58
2022/05/10 04:01:25;;;;;;;;;;;;;;;15.92;nan;95638.19;2070541;28;1531;-60
2022/05/10 04:02:27;;;;;;;;;;;;;;;16.10;nan;95637.97;2083067;28;1928;-59
2022/05/10 04:03:29;;;;;;;;;;;;;;;16.20;nan;95638.66;2080563;28;1552;-61
2022/05/10 04:04:30;;;;;;;;;;;;;;;16.19;nan;95638.78;2079749;28;1331;-61
2022/05/10 04:05:32;;;;;;;;;;;;;;;16.16;nan;95634.69;2082232;28;1785;-60
2022/05/10 04:06:33;;;;;;;;;;;;;;;16.14;nan;95630.53;2081604;28;1193;-59
2022/05/10 04:07:35;;;;;;;;;;;;;;;16.08;nan;95642.66;2085005;28;1538;-59
2022/05/10 04:08:37;;;;;;;;;;;;;;;15.97;nan;95643.00;2081125;28;1064;-58
2022/05/10 04:09:38;;;;;;;;;;;;;;;15.91;nan;95644.50;2080093;28;1603;-60
2022/05/10 04:10:40;;;;;;;;;;;;;;;15.82;nan;95646.31;2080251;28;1484;-58
2022/05/10 04:11:43;;;;;;;;;;;;;;;15.81;nan;95644.63;2077784;28;1236;-59
2022/05/10 04:12:44;;;;;;;;;;;;;;;15.82;nan;95635.72;2074467;28;1925;-59
2022/05/10 04:13:46;;;;;;;;;;;;;;;15.86;nan;95642.31;2078860;28;1681;-59
2022/05/10 04:14:48;;;;;;;;;;;;;;;15.81;nan;95646.47;2080512;28;1703;-59
2022/05/10 04:15:49;;;;;;;;;;;;;;;15.72;nan;95642.97;2081287;28;1733;-59
2022/05/10 04:16:51;;;;;;;;;;;;;;;15.90;nan;95644.63;2076590;28;1529;-59
2022/05/10 04:17:52;;;;;;;;;;;;;;;15.86;nan;95646.81;2076002;28;1015;-59
2022/05/10 04:18:54;;;;;;;;;;;;;;;15.88;nan;95641.31;2087218;28;1838;-59
2022/05/10 04:19:55;;;;;;;;;;;;;;;15.62;nan;95643.13;2090484;28;857;-58
2022/05/10 04:20:57;;;;;;;;;;;;;;;15.66;nan;95640.97;2087786;28;1658;-60
2022/05/10 04:21:59;;;;;;;;;;;;;;;15.51;nan;95643.47;2084543;28;1597;-58
2022/05/10 04:23:00;;;;;;;;;;;;;;;15.38;nan;95645.75;2091122;28;993;-57
2022/05/10 04:24:02;;;;;;;;;;;;;;;15.24;nan;95644.56;2083926;28;1418;-60
2022/05/10 04:25:04;;;;;;;;;;;;;;;15.29;nan;95646.75;2089295;28;1355;-59
2022/05/10 04:26:08;;;;;;;;;;;;;;;15.28;nan;95648.56;2091207;28;1079;-57
2022/05/10 04:27:09;;;;;;;;;;;;;;;15.35;nan;95641.59;2091031;28;1175;-58
2022/05/10 04:28:11;;;;;;;;;;;;;;;15.14;nan;95643.91;2091325;28;1091;-59
2022/05/10 04:29:13;;;;;;;;;;;;;;;15.18;nan;95640.75;2091216;28;994;-59
2022/05/10 04:30:14;;;;;;;;;;;;;;;15.16;nan;95641.91;2091221;28;1083;-58
2022/05/10 04:31:16;;;;;;;;;;;;;;;15.14;nan;95646.56;2091053;28;1113;-58
2022/05/10 04:32:17;;;;;;;;;;;;;;;15.11;nan;95649.53;2090496;28;1136;-57
2022/05/10 04:33:19;;;;;;;;;;;;;;;15.08;nan;95645.38;2091027;28;1969;-58
2022/05/10 04:34:21;;;;;;;;;;;;;;;15.08;nan;95649.81;2091043;28;982;-58
2022/05/10 04:35:22;;;;;;;;;;;;;;;15.09;nan;95632.97;2084698;28;1249;-60
2022/05/10 04:36:25;;;;;;;;;;;;;;;15.12;nan;95649.34;2088481;28;1699;-61
2022/05/10 04:37:26;;;;;;;;;;;;;;;15.18;nan;95645.22;2090284;28;1097;-59
2022/05/10 04:38:28;;;;;;;;;;;;;;;15.24;nan;95643.75;2090406;28;1024;-58
2022/05/10 04:41:24;;;;;;;;;;;;;;;15.26;nan;95647.88;2090065;28;810;-60
2022/05/10 04:42:13;;;;;;;;;;;;;;;15.37;nan;95644.09;2090368;28;811;-58
2022/05/10 04:43:15;;;;;;;;;;;;;;;15.35;nan;95651.38;2090391;28;1561;-58
2022/05/10 04:44:17;;;;;;;;;;;;;;;15.33;nan;95650.69;2090337;28;994;-58
2022/05/10 04:45:19;;;;;;;;;;;;;;;15.35;nan;95646.91;2090234;28;1060;-58
2022/05/10 04:46:21;;;;;;;;;;;;;;;15.37;nan;95650.22;2085235;28;1082;-58
2022/05/10 04:47:22;;;;;;;;;;;;;;;15.39;nan;95652.69;2085454;28;1235;-58
2022/05/10 04:48:24;;;;;;;;;;;;;;;15.35;nan;95646.09;2090181;28;1409;-58
2022/05/10 04:49:26;;;;;;;;;;;;;;;15.31;nan;95660.66;2090226;28;994;-58
2022/05/10 04:50:27;;;;;;;;;;;;;;;15.23;nan;95650.88;2089960;28;1105;-59
2022/05/10 04:51:29;;;;;;;;;;;;;;;15.28;nan;95651.22;2090236;28;1096;-59
2022/05/10 04:52:30;;;;;;;;;;;;;;;15.24;nan;95647.22;2090894;28;1001;-59
2022/05/10 04:53:33;;;;;;;;;;;;;;;15.18;nan;95645.22;2089624;28;1923;-58
2022/05/10 04:54:34;;;;;;;;;;;;;;;15.25;nan;95648.03;2082249;28;798;-58
2022/05/10 04:55:36;;;;;;;;;;;;;;;15.30;nan;95657.16;2082574;28;1112;-58
2022/05/10 04:56:37;;;;;;;;;;;;;;;15.27;nan;95649.53;2082769;28;1059;-58
2022/05/10 04:57:39;;;;;;;;;;;;;;;15.31;nan;95655.34;2078023;28;1020;-59
2022/05/10 04:58:41;;;;;;;;;;;;;;;15.21;nan;95650.19;2077643;28;1346;-59
2022/05/10 04:59:42;;;;;;;;;;;;;;;15.29;nan;95652.84;2082669;28;1018;-59
2022/05/10 05:00:44;;;;;;;;;;;;;;;15.34;nan;95655.84;2082553;28;1109;-59
2022/05/10 05:01:46;;;;;;;;;;;;;;;15.36;nan;95656.53;2081873;28;1107;-59
2022/05/10 05:02:47;;;;;;;;;;;;;;;15.31;nan;95653.53;2082700;28;1013;-59
2022/05/10 05:03:49;;;;;;;;;;;;;;;15.25;nan;95663.91;2082462;28;1021;-58
2022/05/10 05:04:51;;;;;;;;;;;;;;;15.19;nan;95652.16;2082387;28;796;-58
2022/05/10 05:05:52;;;;;;;;;;;;;;;15.28;nan;95658.31;2082500;28;1036;-59
2022/05/10 05:06:54;;;;;;;;;;;;;;;15.36;nan;95656.53;2082474;28;1109;-58
2022/05/10 05:07:56;;;;;;;;;;;;;;;15.38;nan;95651.88;2082663;28;1009;-58
2022/05/10 05:08:57;;;;;;;;;;;;;;;15.39;nan;95650.91;2077622;28;1017;-58
2022/05/10 05:09:59;;;;;;;;;;;;;;;15.40;nan;95649.06;2077591;28;1402;-59
2022/05/10 05:11:01;;;;;;;;;;;;;;;15.34;nan;95647.91;2082510;28;1057;-58
2022/05/10 05:12:04;;;;;;;;;;;;;;;15.42;nan;95650.56;2082143;28;1093;-59
2022/05/10 05:13:05;;;;;;;;;;;;;;;15.41;nan;95646.25;2082355;28;1963;-59
2022/05/10 05:14:09;;;;;;;;;;;;;;;15.47;nan;95646.59;2082627;28;1059;-58
2022/05/10 05:15:11;;;;;;;;;;;;;;;15.53;nan;95653.88;2082518;28;922;-59
2022/05/10 05:16:13;;;;;;;;;;;;;;;15.45;nan;95651.22;2081982;28;1032;-58
2022/05/10 05:17:15;;;;;;;;;;;;;;;15.51;nan;95650.59;2082357;28;1020;-59
2022/05/10 05:18:17;;;;;;;;;;;;;;;15.55;nan;95651.91;2082558;28;1287;-58
2022/05/10 05:19:19;;;;;;;;;;;;;;;15.56;nan;95654.41;2082221;28;1109;-59
2022/05/10 05:20:20;;;;;;;;;;;;;;;15.54;nan;95656.38;2077995;28;1769;-58
2022/05/10 05:21:22;;;;;;;;;;;;;;;15.56;nan;95658.84;2077611;28;1095;-58
2022/05/10 05:22:23;;;;;;;;;;;;;;;15.61;nan;95656.53;2081989;28;1004;-58
2022/05/10 05:23:25;;;;;;;;;;;;;;;15.56;nan;95654.41;2081813;28;1707;-58
2022/05/10 05:24:27;;;;;;;;;;;;;;;15.62;nan;95653.72;2082528;28;1097;-58
2022/05/10 05:25:28;;;;;;;;;;;;;;;15.79;nan;95656.41;2082381;28;1033;-58
2022/05/10 05:26:30;;;;;;;;;;;;;;;15.91;nan;95657.75;2082450;28;1116;-59
2022/05/10 05:27:32;;;;;;;;;;;;;;;15.90;nan;95658.72;2082343;28;1026;-58
2022/05/10 05:28:33;;;;;;;;;;;;;;;15.88;nan;95650.13;2082330;28;1235;-58
2022/05/10 05:29:35;;;;;;;;;;;;;;;15.92;nan;95650.59;2082296;28;1164;-58
2022/05/10 05:30:57;;;;;;;;;;;;;;;15.89;nan;95649.13;2081814;28;2554;-58
2022/05/10 05:32:04;;;;;;;;;;;;;;;15.95;nan;95652.94;2084632;28;1334;-58
2022/05/10 05:33:06;;;;;;;;;;;;;;;15.99;nan;95648.94;2085374;28;1721;-58
2022/05/10 05:34:07;;;;;;;;;;;;;;;15.92;nan;95640.00;2082230;28;1981;-59
2022/05/10 05:35:11;;;;;;;;;;;;;;;16.05;nan;95654.41;2082280;28;1034;-58
2022/05/10 05:36:12;;;;;;;;;;;;;;;16.15;nan;95653.41;2082420;28;1010;-58
2022/05/10 05:37:32;;;;;;;;;;;;;;;16.15;nan;95656.06;2082234;28;724;-58
2022/05/10 05:38:34;;;;;;;;;;;;;;;16.16;nan;95655.91;2081940;28;1021;-59
2022/05/10 05:39:35;;;;;;;;;;;;;;;16.12;nan;95649.25;2089757;28;1108;-58
2022/05/10 05:40:38;;;;;;;;;;;;;;;16.21;nan;95642.94;2089701;28;1152;-58
2022/05/10 05:41:39;;;;;;;;;;;;;;;16.25;nan;95648.75;2082083;28;1036;-58
2022/05/10 05:42:41;;;;;;;;;;;;;;;16.29;nan;95645.56;2082306;28;1234;-58
2022/05/10 05:43:43;;;;;;;;;;;;;;;16.25;nan;95648.75;2073337;28;1076;-58
2022/05/10 05:44:45;;;;;;;;;;;;;;;16.19;nan;95644.09;2082103;28;1606;-58
2022/05/10 05:45:47;;;;;;;;;;;;;;;16.27;nan;95647.56;2081769;28;1160;-58
2022/05/10 05:46:49;;;;;;;;;;;;;;;16.34;nan;95646.91;2082253;28;1043;-58
2022/05/10 05:47:51;;;;;;;;;;;;;;;16.36;nan;95639.59;2082229;28;1039;-58
2022/05/10 05:48:53;;;;;;;;;;;;;;;16.45;nan;95649.19;2089722;28;1236;-59
2022/05/10 05:49:55;;;;;;;;;;;;;;;16.52;nan;95647.50;2089668;28;990;-59
2022/05/10 05:50:56;;;;;;;;;;;;;;;16.52;nan;95650.16;2082363;28;1094;-58
2022/05/10 05:51:59;;;;;;;;;;;;;;;16.56;nan;95650.63;2081529;28;1014;-58
2022/05/10 05:53:00;;;;;;;;;;;;;;;16.58;nan;95649.47;2081248;28;1014;-59
2022/05/10 05:54:04;;;;;;;;;;;;;;;16.65;nan;95647.81;2082129;28;1973;-58
2022/05/10 05:55:06;;;;;;;;;;;;;;;16.71;nan;95647.13;2080666;28;1372;-58